Lady Duvera — PB2875 — position and weather

sailwx.info

Track history (hours):
 
Tides and Currents Weather Stations Pressure Air Temp Water Temp Dewpoint Dewpoint Depression Visibility Wind Speed Wind Dir Waves Ship Positions

Lady Duvera

Last reported at 2017-Aug-23 01:25 UTC. Time now 2017-Aug-23 09:50 UTC.
Position N 43°47' E 008°01'.

Length 44 m.

MMSI: 244650177.

Date/timePositionNaut miles runAvg speedWind from/ knotsBaromVisibWave heightAir tempDewpointWater temp
2017-Aug-23 01:25N 43°47' E 008°01'610.9
2017-Aug-23 00:53N 43°49' E 008°09'511.9
2017-Aug-23 00:30N 43°51' E 008°14'612.0
2017-Aug-23 00:00N 43°55' E 008°21'612.0
2017-Aug-22 23:30N 43°58' E 008°28'911.8
2017-Aug-22 22:46N 44°03' E 008°38'411.6
2017-Aug-22 22:28N 44°05' E 008°42'611.8
2017-Aug-22 21:58N 44°08' E 008°49'511.8
2017-Aug-22 21:30N 44°10' E 008°56'611.8
2017-Aug-22 21:00N 44°13' E 009°03'711.6
2017-Aug-22 20:25N 44°17' E 009°12'2 5.6
2017-Aug-22 19:59N 44°19' E 009°13'0 0.0
2017-Aug-22 17:39N 44°19' E 009°13'0 0.0
2017-Aug-22 17:12N 44°19' E 009°13'0 0.0
2017-Aug-22 14:36N 44°19' E 009°13'0 0.0
2017-Aug-22 13:06N 44°19' E 009°13'0 0.0
2017-Aug-22 10:57N 44°19' E 009°13'0 0.0
2017-Aug-22 10:21N 44°19' E 009°13'0 0.1
2017-Aug-22 09:47N 44°19' E 009°13'1111.1
2017-Aug-22 08:47N 44°13' E 009°27'311.6
2017-Aug-22 08:30N 44°11' E 009°30'611.4
2017-Aug-22 08:00N 44°08' E 009°36'611.2
2017-Aug-22 07:31N 44°04' E 009°42'611.4
2017-Aug-22 07:01N 44°01' E 009°49'2 4.1
2017-Aug-22 06:30N 44°03' E 009°51'0 0.5
2017-Aug-22 06:00N 44°03' E 009°50'0 0.0
2017-Aug-22 05:30N 44°03' E 009°50'0 0.0
2017-Aug-22 05:00N 44°03' E 009°50'0 0.0
2017-Aug-22 04:30N 44°03' E 009°50'0 0.1
2017-Aug-22 04:00N 44°03' E 009°50'0 0.0
2017-Aug-22 03:30N 44°03' E 009°50'0 0.0
2017-Aug-22 03:00N 44°03' E 009°50'0 0.0
2017-Aug-22 02:24N 44°03' E 009°51'0 0.0
2017-Aug-22 02:00N 44°03' E 009°50'0 0.0
2017-Aug-22 01:30N 44°03' E 009°50'0 0.0
2017-Aug-22 01:00N 44°03' E 009°50'0 0.0
2017-Aug-22 00:30N 44°03' E 009°50'0 0.0
2017-Aug-22 00:00N 44°03' E 009°50'0 0.0
2017-Aug-21 23:30N 44°03' E 009°50'0 0.0
2017-Aug-21 22:57N 44°03' E 009°50'0 0.0
2017-Aug-21 22:30N 44°03' E 009°50'0 0.0
2017-Aug-21 22:00N 44°03' E 009°50'0 0.0
2017-Aug-21 21:30N 44°03' E 009°50'0 0.1
2017-Aug-21 21:00N 44°03' E 009°51'0 0.0
2017-Aug-21 20:30N 44°03' E 009°51'0 0.0
2017-Aug-21 20:00N 44°03' E 009°51'0 0.0
2017-Aug-21 19:30N 44°03' E 009°51'0 0.0
2017-Aug-21 19:00N 44°03' E 009°51'0 0.0
2017-Aug-21 18:30N 44°03' E 009°51'0 0.0
2017-Aug-21 18:00N 44°03' E 009°51'0 0.0
2017-Aug-21 17:24N 44°03' E 009°51'0 0.0
2017-Aug-21 17:00N 44°03' E 009°51'0 0.0
2017-Aug-21 16:30N 44°03' E 009°51'0 0.0
2017-Aug-21 16:00N 44°03' E 009°51'0 0.0
2017-Aug-21 15:31N 44°03' E 009°51'1 2.0
2017-Aug-21 15:00N 44°03' E 009°52'612.0
2017-Aug-21 14:30N 43°57' E 009°55'611.9
2017-Aug-21 14:00N 43°52' E 009°58'611.5
2017-Aug-21 13:30N 43°47' E 010°01'611.6
2017-Aug-21 13:00N 43°41' E 010°04'611.4
2017-Aug-21 12:30N 43°35' E 010°05'612.0
2017-Aug-21 11:58N 43°29' E 010°05'612.1
2017-Aug-21 11:30N 43°23' E 010°04'611.8
2017-Aug-21 11:00N 43°18' E 010°04'  
2017-Aug-18 11:24N 41°26' E 009°16'66 1.4
2017-Aug-16 10:36N 42°23' E 008°32'110.6
2017-Aug-16 10:29N 42°24' E 008°33'1210.8
2017-Aug-16 09:19N 42°35' E 008°42'3 7.4
2017-Aug-16 08:54N 42°34' E 008°46'1 1.1
2017-Aug-16 08:24N 42°34' E 008°46'0 0.1
2017-Aug-16 07:51N 42°34' E 008°46'14 4.5
2017-Aug-16 04:44N 42°44' E 008°33'210.3
2017-Aug-16 04:29N 42°46' E 008°31'510.4
2017-Aug-16 03:59N 42°49' E 008°25'1210.7
2017-Aug-16 02:49N 42°56' E 008°11'411.3
2017-Aug-16 02:30N 42°57' E 008°06'611.3
2017-Aug-16 01:58N 43°01' E 007°60'1611.2
2017-Aug-16 00:34N 43°09' E 007°41'111.2
2017-Aug-16 00:30N 43°09' E 007°41'2111.2
2017-Aug-15 22:39N 43°21' E 007°17'211.1
2017-Aug-15 22:30N 43°22' E 007°15'611.1
2017-Aug-15 22:00N 43°25' E 007°09'510.8
2017-Aug-15 21:30N 43°28' E 007°03'4 7.2
2017-Aug-15 21:00N 43°32' E 007°01'1 1.6
2017-Aug-15 20:30N 43°32' E 007°01'0 0.0
2017-Aug-15 20:00N 43°32' E 007°01'0 0.0
2017-Aug-15 19:30N 43°32' E 007°01'0 0.0
2017-Aug-15 19:00N 43°32' E 007°01'0 0.0
2017-Aug-15 18:30N 43°32' E 007°01'0 0.0
2017-Aug-15 18:00N 43°32' E 007°01'3 5.3
2017-Aug-15 17:30N 43°30' E 007°02'  
2017-Aug-13 05:37N 43°34' E 007°05'0 0.0
2017-Aug-13 05:07N 43°34' E 007°05'0 0.0
2017-Aug-13 04:49N 43°34' E 007°05'  
Track history (hours):
 
Tides and Currents Weather Stations Pressure Air Temp Water Temp Dewpoint Dewpoint Depression Visibility Wind Speed Wind Dir Waves Ship Positions

Lady Duvera

Last reported at 2017-Aug-23 01:25 UTC. Time now 2017-Aug-23 09:50 UTC.
Position N 43°47' E 008°01'.

Length 44 m.

MMSI: 244650177.

Date/timePositionNaut miles runAvg speedWind from/ knotsBaromVisibWave heightAir tempDewpointWater temp
2017-Aug-23 01:25N 43°47' E 008°01'610.9
2017-Aug-23 00:53N 43°49' E 008°09'511.9
2017-Aug-23 00:30N 43°51' E 008°14'612.0
2017-Aug-23 00:00N 43°55' E 008°21'612.0
2017-Aug-22 23:30N 43°58' E 008°28'911.8
2017-Aug-22 22:46N 44°03' E 008°38'411.6
2017-Aug-22 22:28N 44°05' E 008°42'611.8
2017-Aug-22 21:58N 44°08' E 008°49'511.8
2017-Aug-22 21:30N 44°10' E 008°56'611.8
2017-Aug-22 21:00N 44°13' E 009°03'711.6
2017-Aug-22 20:25N 44°17' E 009°12'2 5.6
2017-Aug-22 19:59N 44°19' E 009°13'0 0.0
2017-Aug-22 17:39N 44°19' E 009°13'0 0.0
2017-Aug-22 17:12N 44°19' E 009°13'0 0.0
2017-Aug-22 14:36N 44°19' E 009°13'0 0.0
2017-Aug-22 13:06N 44°19' E 009°13'0 0.0
2017-Aug-22 10:57N 44°19' E 009°13'0 0.0
2017-Aug-22 10:21N 44°19' E 009°13'0 0.1
2017-Aug-22 09:47N 44°19' E 009°13'1111.1
2017-Aug-22 08:47N 44°13' E 009°27'311.6
2017-Aug-22 08:30N 44°11' E 009°30'611.4
2017-Aug-22 08:00N 44°08' E 009°36'611.2
2017-Aug-22 07:31N 44°04' E 009°42'611.4
2017-Aug-22 07:01N 44°01' E 009°49'2 4.1
2017-Aug-22 06:30N 44°03' E 009°51'0 0.5
2017-Aug-22 06:00N 44°03' E 009°50'0 0.0
2017-Aug-22 05:30N 44°03' E 009°50'0 0.0
2017-Aug-22 05:00N 44°03' E 009°50'0 0.0
2017-Aug-22 04:30N 44°03' E 009°50'0 0.1
2017-Aug-22 04:00N 44°03' E 009°50'0 0.0
2017-Aug-22 03:30N 44°03' E 009°50'0 0.0
2017-Aug-22 03:00N 44°03' E 009°50'0 0.0
2017-Aug-22 02:24N 44°03' E 009°51'0 0.0
2017-Aug-22 02:00N 44°03' E 009°50'0 0.0
2017-Aug-22 01:30N 44°03' E 009°50'0 0.0
2017-Aug-22 01:00N 44°03' E 009°50'0 0.0
2017-Aug-22 00:30N 44°03' E 009°50'0 0.0
2017-Aug-22 00:00N 44°03' E 009°50'0 0.0
2017-Aug-21 23:30N 44°03' E 009°50'0 0.0
2017-Aug-21 22:57N 44°03' E 009°50'0 0.0
2017-Aug-21 22:30N 44°03' E 009°50'0 0.0
2017-Aug-21 22:00N 44°03' E 009°50'0 0.0
2017-Aug-21 21:30N 44°03' E 009°50'0 0.1
2017-Aug-21 21:00N 44°03' E 009°51'0 0.0
2017-Aug-21 20:30N 44°03' E 009°51'0 0.0
2017-Aug-21 20:00N 44°03' E 009°51'0 0.0
2017-Aug-21 19:30N 44°03' E 009°51'0 0.0
2017-Aug-21 19:00N 44°03' E 009°51'0 0.0
2017-Aug-21 18:30N 44°03' E 009°51'0 0.0
2017-Aug-21 18:00N 44°03' E 009°51'0 0.0
2017-Aug-21 17:24N 44°03' E 009°51'0 0.0
2017-Aug-21 17:00N 44°03' E 009°51'0 0.0
2017-Aug-21 16:30N 44°03' E 009°51'0 0.0
2017-Aug-21 16:00N 44°03' E 009°51'0 0.0
2017-Aug-21 15:31N 44°03' E 009°51'1 2.0
2017-Aug-21 15:00N 44°03' E 009°52'612.0
2017-Aug-21 14:30N 43°57' E 009°55'611.9
2017-Aug-21 14:00N 43°52' E 009°58'611.5
2017-Aug-21 13:30N 43°47' E 010°01'611.6
2017-Aug-21 13:00N 43°41' E 010°04'611.4
2017-Aug-21 12:30N 43°35' E 010°05'612.0
2017-Aug-21 11:58N 43°29' E 010°05'612.1
2017-Aug-21 11:30N 43°23' E 010°04'611.8
2017-Aug-21 11:00N 43°18' E 010°04'  
2017-Aug-18 11:24N 41°26' E 009°16'66 1.4
2017-Aug-16 10:36N 42°23' E 008°32'110.6
2017-Aug-16 10:29N 42°24' E 008°33'1210.8
2017-Aug-16 09:19N 42°35' E 008°42'3 7.4
2017-Aug-16 08:54N 42°34' E 008°46'1 1.1
2017-Aug-16 08:24N 42°34' E 008°46'0 0.1
2017-Aug-16 07:51N 42°34' E 008°46'14 4.5
2017-Aug-16 04:44N 42°44' E 008°33'210.3
2017-Aug-16 04:29N 42°46' E 008°31'510.4
2017-Aug-16 03:59N 42°49' E 008°25'1210.7
2017-Aug-16 02:49N 42°56' E 008°11'411.3
2017-Aug-16 02:30N 42°57' E 008°06'611.3
2017-Aug-16 01:58N 43°01' E 007°60'1611.2
2017-Aug-16 00:34N 43°09' E 007°41'111.2
2017-Aug-16 00:30N 43°09' E 007°41'2111.2
2017-Aug-15 22:39N 43°21' E 007°17'211.1
2017-Aug-15 22:30N 43°22' E 007°15'611.1
2017-Aug-15 22:00N 43°25' E 007°09'510.8
2017-Aug-15 21:30N 43°28' E 007°03'4 7.2
2017-Aug-15 21:00N 43°32' E 007°01'1 1.6
2017-Aug-15 20:30N 43°32' E 007°01'0 0.0
2017-Aug-15 20:00N 43°32' E 007°01'0 0.0
2017-Aug-15 19:30N 43°32' E 007°01'0 0.0
2017-Aug-15 19:00N 43°32' E 007°01'0 0.0
2017-Aug-15 18:30N 43°32' E 007°01'0 0.0
2017-Aug-15 18:00N 43°32' E 007°01'3 5.3
2017-Aug-15 17:30N 43°30' E 007°02'  
2017-Aug-13 05:37N 43°34' E 007°05'0 0.0
2017-Aug-13 05:07N 43°34' E 007°05'0 0.0
2017-Aug-13 04:49N 43°34' E 007°05'  

Dump ship's entire track history